createdAt,value
2019-06-01T00:02:20.101Z,15.20
2019-06-01T00:04:49.473Z,15.10
2019-06-01T00:07:18.589Z,15.00
2019-06-01T00:09:47.604Z,15.00
2019-06-01T00:12:16.475Z,15.20
2019-06-01T00:14:45.995Z,15.10
2019-06-01T00:17:15.453Z,15.00
2019-06-01T00:19:44.308Z,15.10
2019-06-01T00:22:13.255Z,15.10
2019-06-01T00:24:42.185Z,15.20
2019-06-01T00:27:11.125Z,15.30
2019-06-01T00:29:40.611Z,15.20
2019-06-01T00:32:10.005Z,15.10
2019-06-01T00:34:38.998Z,14.90
2019-06-01T00:37:08.126Z,14.80
2019-06-01T00:39:37.058Z,14.70
2019-06-01T00:42:06.005Z,14.70
2019-06-01T00:44:35.328Z,14.60
2019-06-01T00:47:04.608Z,14.60
2019-06-01T00:49:33.475Z,14.60
2019-06-01T00:52:02.442Z,14.80
2019-06-01T00:54:31.285Z,14.50
2019-06-01T00:57:00.237Z,14.40
2019-06-01T00:59:29.508Z,14.40
2019-06-01T01:01:58.472Z,14.20
2019-06-01T01:04:27.345Z,14.20
2019-06-01T01:06:56.368Z,14.30
2019-06-01T01:09:25.221Z,14.10
2019-06-01T01:11:55.299Z,14.20
2019-06-01T01:14:24.478Z,14.40
2019-06-01T01:16:54.170Z,14.20
2019-06-01T01:19:23.585Z,14.10
2019-06-01T01:21:52.540Z,14.10
2019-06-01T01:24:21.397Z,14.20
2019-06-01T01:26:50.670Z,14.30
2019-06-01T01:29:19.594Z,14.30
2019-06-01T01:31:49.173Z,14.30
2019-06-01T01:34:18.549Z,14.40
2019-06-01T01:36:47.604Z,14.30
2019-06-01T01:39:16.645Z,14.30
2019-06-01T01:41:45.509Z,14.20
2019-06-01T01:44:14.462Z,14.10
2019-06-01T01:46:43.341Z,14.10
2019-06-01T01:49:12.617Z,14.10
2019-06-01T01:51:41.813Z,14.00
2019-06-01T01:54:10.744Z,14.10
2019-06-01T01:56:39.611Z,14.10
2019-06-01T01:59:08.461Z,14.10
2019-06-01T02:01:37.405Z,14.00
2019-06-01T02:04:06.412Z,14.00
2019-06-01T02:06:35.285Z,14.00
2019-06-01T02:09:07.210Z,14.00
2019-06-01T02:11:36.099Z,13.90
2019-06-01T02:14:05.183Z,13.90
2019-06-01T02:16:34.118Z,13.90
2019-06-01T02:19:03.421Z,13.90
2019-06-01T02:21:32.283Z,13.90
2019-06-01T02:24:01.408Z,13.80
2019-06-01T02:26:31.013Z,13.80
2019-06-01T02:28:59.967Z,13.90
2019-06-01T02:31:41.057Z,13.80
2019-06-01T02:34:01.499Z,13.80
2019-06-01T02:36:30.649Z,13.80
2019-06-01T02:39:01.177Z,13.70
2019-06-01T02:41:30.176Z,13.80
2019-06-01T02:43:59.226Z,13.80
2019-06-01T02:46:28.206Z,13.80
2019-06-01T02:48:57.418Z,13.80
2019-06-01T02:51:26.414Z,13.70
2019-06-01T02:53:55.637Z,13.60
2019-06-01T02:56:24.711Z,13.50
2019-06-01T02:58:53.962Z,13.60
2019-06-01T03:01:34.135Z,13.60
2019-06-01T03:04:08.143Z,13.50
2019-06-01T03:06:41.448Z,13.50
2019-06-01T03:09:10.682Z,13.50
2019-06-01T03:11:40.857Z,13.40
2019-06-01T03:14:11.873Z,13.30
2019-06-01T03:16:41.910Z,13.30
2019-06-01T03:19:12.146Z,13.30
2019-06-01T03:21:44.032Z,13.30
2019-06-01T03:24:13.698Z,13.20
2019-06-01T03:26:47.093Z,13.20
2019-06-01T03:29:20.424Z,13.40
2019-06-01T03:31:49.729Z,13.30
2019-06-01T03:34:18.754Z,13.40
2019-06-01T03:36:47.677Z,13.40
2019-06-01T03:39:17.077Z,13.40
2019-06-01T03:41:46.093Z,13.30
2019-06-01T03:44:15.117Z,13.20
2019-06-01T03:46:44.135Z,13.10
2019-06-01T03:49:13.150Z,13.10
2019-06-01T03:51:42.149Z,13.20
2019-06-01T03:54:11.651Z,13.20
2019-06-01T03:56:40.593Z,13.10
2019-06-01T03:59:11.268Z,13.00
2019-06-01T04:01:40.264Z,13.00
2019-06-01T04:04:09.375Z,13.00
2019-06-01T04:06:38.440Z,13.00
2019-06-01T04:09:09.729Z,13.10
2019-06-01T04:11:39.214Z,13.00
2019-06-01T04:14:08.238Z,13.00
2019-06-01T04:16:37.618Z,13.10
2019-06-01T04:19:07.953Z,13.20
2019-06-01T04:21:36.955Z,13.30
2019-06-01T04:24:06.025Z,13.30
2019-06-01T04:26:34.905Z,13.20
2019-06-01T04:29:04.897Z,13.20
2019-06-01T04:31:34.642Z,13.30
2019-06-01T04:34:04.539Z,13.20
2019-06-01T04:36:33.604Z,13.10
2019-06-01T04:39:03.359Z,13.10
2019-06-01T04:41:32.720Z,13.20
2019-06-01T04:44:01.657Z,13.20
2019-06-01T04:46:30.589Z,13.30
2019-06-01T04:48:59.596Z,13.40
2019-06-01T04:51:28.698Z,13.50
2019-06-01T04:53:57.965Z,13.50
2019-06-01T04:56:26.898Z,13.60
2019-06-01T04:58:55.770Z,13.60
2019-06-01T05:01:25.121Z,13.60
2019-06-01T05:03:54.641Z,13.70
2019-06-01T05:06:23.577Z,13.80
2019-06-01T05:08:52.433Z,13.80
2019-06-01T05:11:21.441Z,13.90
2019-06-01T05:16:38.856Z,14.00
2019-06-01T05:19:08.111Z,14.10
2019-06-01T05:21:37.257Z,14.10
2019-06-01T05:24:06.650Z,14.20
2019-06-01T05:26:35.634Z,14.20
2019-06-01T05:29:04.636Z,14.30
2019-06-01T05:31:33.652Z,14.30
2019-06-01T05:34:02.589Z,14.30
2019-06-01T05:36:31.457Z,14.40
2019-06-01T05:39:00.341Z,14.50
2019-06-01T05:41:29.601Z,14.60
2019-06-01T05:43:58.840Z,14.70
2019-06-01T05:46:27.745Z,14.80
2019-06-01T05:48:56.677Z,14.90
2019-06-01T05:51:25.621Z,14.90
2019-06-01T05:53:54.549Z,15.00
2019-06-01T05:56:23.592Z,15.00
2019-06-01T05:58:52.583Z,15.10
2019-06-01T06:01:22.769Z,15.20
2019-06-01T06:03:52.184Z,15.30
2019-06-01T06:06:22.086Z,15.40
2019-06-01T06:08:51.116Z,15.50
2019-06-01T06:11:21.174Z,15.60
2019-06-01T06:13:50.274Z,15.70
2019-06-01T06:16:20.875Z,15.80
2019-06-01T06:18:50.419Z,15.90
2019-06-01T06:21:20.272Z,16.10
2019-06-01T06:23:49.405Z,16.20
2019-06-01T06:26:19.163Z,16.40
2019-06-01T06:28:49.232Z,16.50
2019-06-01T06:31:19.129Z,16.70
2019-06-01T06:33:56.628Z,16.90
2019-06-01T06:36:19.816Z,17.40
2019-06-01T06:38:48.794Z,18.40
2019-06-01T06:41:18.235Z,19.60
2019-06-01T06:43:47.290Z,20.50
2019-06-01T06:46:16.604Z,21.60
2019-06-01T06:48:45.606Z,22.10
2019-06-01T06:51:15.127Z,22.60
2019-06-01T06:53:44.341Z,22.70
2019-06-01T06:56:13.853Z,22.80
2019-06-01T06:58:42.687Z,22.60
2019-06-01T07:01:12.265Z,22.40
2019-06-01T07:03:41.396Z,22.50
2019-06-01T07:06:10.534Z,22.20
2019-06-01T07:08:39.444Z,21.90
2019-06-01T07:11:11.765Z,21.70
2019-06-01T07:13:39.042Z,21.70
2019-06-01T07:16:07.950Z,21.50
2019-06-01T07:18:36.801Z,21.40
2019-06-01T07:21:05.685Z,21.50
2019-06-01T07:23:34.538Z,21.30
2019-06-01T07:26:03.529Z,21.20
2019-06-01T07:28:32.504Z,21.20
2019-06-01T07:31:01.413Z,21.10
2019-06-01T07:33:30.248Z,21.10
2019-06-01T07:35:59.382Z,21.30
2019-06-01T07:38:28.922Z,21.30
2019-06-01T07:40:58.377Z,21.40
2019-06-01T07:43:27.258Z,21.50
2019-06-01T07:45:56.583Z,21.70
2019-06-01T07:48:25.514Z,21.90
2019-06-01T07:50:54.521Z,22.10
2019-06-01T07:53:24.072Z,22.40
2019-06-01T07:55:53.462Z,22.80
2019-06-01T07:58:22.430Z,23.20
2019-06-01T08:00:51.388Z,23.60
2019-06-01T08:03:22.413Z,24.10
2019-06-01T08:05:51.193Z,24.90
2019-06-01T08:08:21.733Z,25.30
2019-06-01T08:10:51.020Z,25.80
2019-06-01T08:13:20.278Z,26.20
2019-06-01T08:15:50.397Z,26.50
2019-06-01T08:18:19.259Z,26.80
2019-06-01T08:20:48.433Z,26.90
2019-06-01T08:23:17.766Z,27.10
2019-06-01T08:25:46.624Z,27.40
2019-06-01T08:28:15.630Z,27.80
2019-06-01T08:30:44.589Z,27.70
2019-06-01T08:33:13.911Z,28.00
2019-06-01T08:35:42.978Z,28.20
2019-06-01T08:38:11.925Z,28.10
2019-06-01T08:40:41.095Z,28.10
2019-06-01T08:43:10.093Z,28.20
2019-06-01T08:45:39.005Z,28.30
2019-06-01T08:48:08.283Z,28.50
2019-06-01T08:50:37.120Z,28.10
2019-06-01T08:53:06.046Z,28.20
2019-06-01T08:55:35.029Z,28.30
2019-06-01T08:58:04.033Z,28.40
2019-06-01T09:00:33.017Z,28.60
2019-06-01T09:03:01.861Z,28.60
2019-06-01T09:05:31.531Z,29.10
2019-06-01T09:08:00.608Z,29.10
2019-06-01T09:10:29.534Z,29.20
2019-06-01T09:12:58.399Z,29.00
2019-06-01T09:15:27.629Z,29.20
2019-06-01T09:17:56.605Z,29.30
2019-06-01T09:20:25.544Z,29.40
2019-06-01T09:22:54.915Z,29.50
2019-06-01T09:25:23.897Z,29.80
2019-06-01T09:27:53.148Z,29.70
2019-06-01T09:30:22.138Z,29.90
2019-06-01T09:32:50.985Z,29.80
2019-06-01T09:35:19.921Z,29.90
2019-06-01T09:37:49.126Z,29.90
2019-06-01T09:40:18.371Z,29.60
2019-06-01T09:42:47.412Z,29.70
2019-06-01T09:45:16.666Z,30.00
2019-06-01T09:47:46.289Z,30.20
2019-06-01T09:50:15.749Z,30.10
2019-06-01T09:52:45.041Z,30.30
2019-06-01T09:55:14.029Z,30.40
2019-06-01T09:57:43.212Z,30.50
2019-06-01T10:00:13.270Z,30.60
2019-06-01T10:02:42.489Z,30.50
2019-06-01T10:05:12.305Z,30.70
2019-06-01T10:07:41.652Z,30.80
2019-06-01T10:10:11.147Z,30.50
2019-06-01T10:12:40.117Z,30.60
2019-06-01T10:15:09.220Z,30.80
2019-06-01T10:17:39.068Z,30.80
2019-06-01T10:20:09.315Z,31.10
2019-06-01T10:22:39.405Z,31.10
2019-06-01T10:25:08.627Z,31.10
2019-06-01T10:27:38.650Z,31.00
2019-06-01T10:30:08.389Z,31.10
2019-06-01T10:32:38.064Z,31.00
2019-06-01T10:35:07.732Z,30.90
2019-06-01T10:37:37.558Z,31.00
2019-06-01T10:40:07.232Z,31.30
2019-06-01T10:42:37.807Z,31.50
2019-06-01T10:45:08.135Z,31.50
2019-06-01T10:47:38.285Z,31.40
2019-06-01T10:50:08.033Z,31.40
2019-06-01T10:52:38.181Z,31.60
2019-06-01T10:55:07.774Z,31.80
2019-06-01T10:57:38.379Z,31.60
2019-06-01T11:00:07.788Z,31.60
2019-06-01T11:02:36.727Z,31.60
2019-06-01T11:05:06.449Z,31.70
2019-06-01T11:07:36.768Z,31.60
2019-06-01T11:10:07.901Z,31.30
2019-06-01T11:12:37.107Z,31.40
2019-06-01T11:15:06.238Z,31.50
2019-06-01T11:17:35.222Z,31.30
2019-06-01T11:20:06.009Z,31.10
2019-06-01T11:22:35.478Z,31.10
2019-06-01T11:25:06.393Z,30.90
2019-06-01T11:27:35.708Z,30.90
2019-06-01T11:30:06.323Z,30.70
2019-06-01T11:32:35.927Z,30.90
2019-06-01T11:35:06.214Z,30.70
2019-06-01T11:37:36.109Z,30.40
2019-06-01T11:40:05.781Z,30.60
2019-06-01T11:42:35.094Z,30.50
2019-06-01T11:45:04.897Z,30.40
2019-06-01T11:47:34.740Z,30.40
2019-06-01T11:50:04.433Z,30.40
2019-06-01T11:52:33.429Z,30.20
2019-06-01T11:55:02.445Z,29.90
2019-06-01T11:57:31.282Z,30.00
2019-06-01T12:00:00.461Z,29.70
2019-06-01T12:02:29.701Z,29.70
2019-06-01T12:04:58.552Z,29.50
2019-06-01T12:07:27.799Z,29.40
2019-06-01T12:09:56.656Z,29.40
2019-06-01T12:12:25.784Z,29.30
2019-06-01T12:14:54.683Z,29.20
2019-06-01T12:17:23.598Z,29.00
2019-06-01T12:19:52.775Z,29.10
2019-06-01T12:22:21.637Z,29.00
2019-06-01T12:24:50.925Z,28.70
2019-06-01T12:27:20.169Z,28.80
2019-06-01T12:29:52.422Z,28.70
2019-06-01T12:32:20.674Z,28.70
2019-06-01T12:34:50.497Z,28.60
2019-06-01T12:37:36.194Z,28.70
2019-06-01T12:39:54.261Z,28.70
2019-06-01T12:42:22.704Z,28.70
2019-06-01T12:44:52.159Z,28.60
2019-06-01T12:47:22.195Z,28.40
2019-06-01T12:49:52.564Z,28.20
2019-06-01T12:52:22.226Z,28.10
2019-06-01T12:54:51.424Z,28.10
2019-06-01T12:57:20.620Z,28.10
2019-06-01T12:59:50.895Z,28.00
2019-06-01T13:02:20.608Z,28.00
2019-06-01T13:04:49.805Z,28.00
2019-06-01T13:07:18.740Z,28.00
2019-06-01T13:09:48.555Z,28.00
2019-06-01T13:12:17.520Z,28.00
2019-06-01T13:14:47.227Z,28.00
2019-06-01T13:17:16.230Z,27.90
2019-06-01T13:19:45.354Z,27.90
2019-06-01T13:22:15.018Z,27.90
2019-06-01T13:24:47.764Z,27.80
2019-06-01T13:27:17.584Z,27.80
2019-06-01T13:29:47.862Z,27.80
2019-06-01T13:32:16.828Z,27.60
2019-06-01T13:34:47.176Z,27.60
2019-06-01T13:37:16.265Z,27.60
2019-06-01T13:39:46.426Z,27.60
2019-06-01T13:42:15.851Z,27.40
2019-06-01T13:44:45.376Z,27.40
2019-06-01T13:47:14.378Z,27.40
2019-06-01T13:49:44.522Z,27.40
2019-06-01T13:52:14.305Z,27.30
2019-06-01T13:54:44.081Z,27.40
2019-06-01T13:57:13.125Z,27.40
2019-06-01T13:59:44.465Z,27.30
2019-06-01T14:02:13.761Z,27.40
2019-06-01T14:04:42.730Z,27.40
2019-06-01T14:07:11.656Z,27.40
2019-06-01T14:09:40.784Z,27.30
2019-06-01T14:12:09.825Z,27.20
2019-06-01T14:14:38.737Z,27.10
2019-06-01T14:17:07.609Z,27.20
2019-06-01T14:19:36.450Z,27.20
2019-06-01T14:22:05.537Z,27.20
2019-06-01T14:24:34.802Z,27.30
2019-06-01T14:27:03.662Z,27.30
2019-06-01T14:29:32.664Z,27.20
2019-06-01T14:32:01.528Z,27.20
2019-06-01T14:34:30.710Z,27.10
2019-06-01T14:36:59.701Z,27.10
2019-06-01T14:39:28.676Z,27.00
2019-06-01T14:41:57.856Z,27.00
2019-06-01T14:44:26.802Z,27.00
2019-06-01T14:47:03.806Z,27.00
2019-06-01T14:49:26.548Z,27.00
2019-06-01T14:51:55.818Z,27.00
2019-06-01T14:54:25.126Z,27.00
2019-06-01T14:56:54.389Z,27.00
2019-06-01T14:59:23.403Z,27.00
2019-06-01T15:01:52.685Z,27.10
2019-06-01T15:04:21.613Z,27.10
2019-06-01T15:06:50.586Z,27.10
2019-06-01T15:09:20.047Z,27.00
2019-06-01T15:11:50.485Z,27.00
2019-06-01T15:14:20.209Z,27.00
2019-06-01T15:16:49.584Z,27.00
2019-06-01T15:19:18.786Z,27.00
2019-06-01T15:21:47.742Z,26.90
2019-06-01T15:24:17.410Z,26.90
2019-06-01T15:26:46.329Z,26.90
2019-06-01T15:29:15.335Z,27.00
2019-06-01T15:31:44.257Z,27.00
2019-06-01T15:34:13.196Z,27.10
2019-06-01T15:36:42.137Z,27.10
2019-06-01T15:39:24.093Z,27.00
2019-06-01T15:41:42.562Z,27.00
2019-06-01T15:44:11.829Z,26.90
2019-06-01T15:46:40.769Z,26.90
2019-06-01T15:49:10.552Z,26.90
2019-06-01T15:51:39.814Z,26.90
2019-06-01T15:54:09.038Z,26.90
2019-06-01T15:56:38.321Z,26.80
2019-06-01T15:59:07.187Z,26.80
2019-06-01T16:01:36.101Z,26.80
2019-06-01T16:04:05.110Z,26.80
2019-06-01T16:06:34.022Z,26.80
2019-06-01T16:09:04.764Z,26.80
2019-06-01T16:11:33.645Z,26.80
2019-06-01T16:14:03.923Z,26.80
2019-06-01T16:16:33.002Z,26.70
2019-06-01T16:19:04.884Z,26.70
2019-06-01T16:21:32.489Z,26.60
2019-06-01T16:24:02.326Z,26.60
2019-06-01T16:26:31.405Z,26.60
2019-06-01T16:29:00.544Z,26.60
2019-06-01T16:31:29.465Z,26.70
2019-06-01T16:33:58.588Z,26.70
2019-06-01T16:36:27.598Z,26.70
2019-06-01T16:39:02.749Z,26.70
2019-06-01T16:41:27.547Z,26.70
2019-06-01T16:43:57.558Z,26.70
2019-06-01T16:46:26.599Z,26.60
2019-06-01T16:48:55.586Z,26.60
2019-06-01T16:51:24.492Z,26.60
2019-06-01T16:53:53.489Z,26.60
2019-06-01T16:56:22.400Z,26.60
2019-06-01T16:58:51.334Z,26.60
2019-06-01T17:01:20.241Z,26.60
2019-06-01T17:03:49.543Z,26.60
2019-06-01T17:06:18.581Z,26.50
2019-06-01T17:08:47.576Z,26.50
2019-06-01T17:11:17.027Z,26.50
2019-06-01T17:13:46.532Z,26.40
2019-06-01T17:16:15.933Z,26.50
2019-06-01T17:18:44.770Z,26.40
2019-06-01T17:21:13.925Z,26.40
2019-06-01T17:23:43.120Z,26.40
2019-06-01T17:26:12.049Z,26.40
2019-06-01T17:28:41.050Z,26.30
2019-06-01T17:31:10.345Z,26.40
2019-06-01T17:33:39.254Z,26.40
2019-06-01T17:36:08.949Z,26.40
2019-06-01T17:38:38.151Z,26.30
2019-06-01T17:41:08.363Z,26.30
2019-06-01T17:43:37.545Z,26.20
2019-06-01T17:46:07.284Z,26.20
2019-06-01T17:48:36.392Z,26.20
2019-06-01T17:51:06.646Z,26.20
2019-06-01T17:53:35.655Z,26.10
2019-06-01T17:56:05.980Z,26.00
2019-06-01T17:58:35.228Z,26.00
2019-06-01T18:01:04.654Z,25.90
2019-06-01T18:03:34.945Z,25.80
2019-06-01T18:06:04.277Z,25.70
2019-06-01T18:08:36.613Z,25.60
2019-06-01T18:11:06.007Z,25.50
2019-06-01T18:13:35.109Z,25.40
2019-06-01T18:16:04.668Z,25.40
2019-06-01T18:18:34.048Z,25.30
2019-06-01T18:21:22.134Z,25.30
2019-06-01T18:23:51.049Z,25.30
2019-06-01T18:26:20.052Z,25.30
2019-06-01T18:28:48.888Z,25.20
2019-06-01T18:31:17.817Z,25.10
2019-06-01T18:33:47.146Z,25.10
2019-06-01T18:36:16.155Z,25.10
2019-06-01T18:38:45.137Z,25.00
2019-06-01T18:41:18.326Z,24.90
2019-06-01T18:43:44.705Z,24.80
2019-06-01T18:46:14.416Z,24.70
2019-06-01T18:48:43.889Z,24.60
2019-06-01T18:51:14.458Z,24.50
2019-06-01T18:53:47.079Z,24.40
2019-06-01T18:56:16.048Z,24.20
2019-06-01T18:58:45.029Z,24.20
2019-06-01T19:01:14.714Z,24.10
2019-06-01T19:03:43.781Z,24.10
2019-06-01T19:06:13.794Z,24.10
2019-06-01T19:08:42.757Z,24.10
2019-06-01T19:11:28.365Z,24.20
2019-06-01T19:13:42.253Z,24.10
2019-06-01T19:16:12.149Z,24.00
2019-06-01T19:18:41.277Z,23.90
2019-06-01T19:21:10.625Z,23.70
2019-06-01T19:23:39.903Z,23.60
2019-06-01T19:26:11.819Z,23.50
2019-06-01T19:28:39.589Z,23.40
2019-06-01T19:31:08.847Z,23.40
2019-06-01T19:33:37.777Z,23.20
2019-06-01T19:36:07.026Z,23.20
2019-06-01T19:38:37.368Z,23.00
2019-06-01T19:41:07.392Z,22.80
2019-06-01T19:43:36.499Z,22.90
2019-06-01T19:46:05.424Z,22.80
2019-06-01T19:48:34.733Z,22.80
2019-06-01T19:51:04.126Z,22.70
2019-06-01T19:53:32.964Z,22.50
2019-06-01T19:56:02.110Z,22.40
2019-06-01T19:58:30.966Z,22.20
2019-06-01T20:00:59.807Z,22.10
2019-06-01T20:03:28.737Z,22.00
2019-06-01T20:05:57.653Z,22.00
2019-06-01T20:08:26.582Z,22.20
2019-06-01T20:10:55.766Z,22.10
2019-06-01T20:13:24.761Z,22.10
2019-06-01T20:15:53.597Z,22.00
2019-06-01T20:18:23.043Z,21.80
2019-06-01T20:20:51.939Z,21.60
2019-06-01T20:23:21.729Z,21.70
2019-06-01T20:25:50.969Z,21.60
2019-06-01T20:28:19.821Z,21.60
2019-06-01T20:30:48.750Z,21.50
2019-06-01T20:33:18.262Z,21.50
2019-06-01T20:35:47.359Z,21.50
2019-06-01T20:38:16.751Z,21.40
2019-06-01T20:40:46.231Z,21.40
2019-06-01T20:43:15.155Z,21.30
2019-06-01T20:45:44.374Z,21.40
2019-06-01T20:48:13.825Z,21.40
2019-06-01T20:50:43.899Z,21.20
2019-06-01T20:53:12.922Z,21.30
2019-06-01T20:55:42.061Z,21.10
2019-06-01T20:58:10.978Z,21.20
2019-06-01T21:00:40.345Z,21.00
2019-06-01T21:03:09.541Z,21.00
2019-06-01T21:05:38.503Z,21.00
2019-06-01T21:08:07.494Z,20.90
2019-06-01T21:10:36.485Z,20.90
2019-06-01T21:13:07.923Z,21.00
2019-06-01T21:15:36.117Z,20.90
2019-06-01T21:18:05.046Z,20.70
2019-06-01T21:20:34.041Z,20.80
2019-06-01T21:23:02.893Z,20.80
2019-06-01T21:25:31.735Z,20.70
2019-06-01T21:28:00.663Z,20.60
2019-06-01T21:30:29.797Z,20.60
2019-06-01T21:32:58.649Z,20.60
2019-06-01T21:35:27.885Z,20.60
2019-06-01T21:37:56.747Z,20.40
2019-06-01T21:40:25.776Z,20.30
2019-06-01T21:43:03.188Z,20.20
2019-06-01T21:45:25.867Z,20.20
2019-06-01T21:47:55.748Z,20.20
2019-06-01T21:50:25.963Z,20.20
2019-06-01T21:52:55.098Z,20.00
2019-06-01T21:55:24.483Z,20.00
2019-06-01T21:57:53.541Z,20.00
2019-06-01T22:00:31.302Z,20.00
2019-06-01T22:03:00.652Z,20.00
2019-06-01T22:05:29.979Z,19.90
2019-06-01T22:07:59.088Z,19.80
2019-06-01T22:10:28.001Z,19.70
2019-06-01T22:12:56.986Z,19.60
2019-06-01T22:15:26.068Z,19.50
2019-06-01T22:17:55.215Z,19.50
2019-06-01T22:20:24.170Z,19.50
2019-06-01T22:22:53.612Z,19.50
2019-06-01T22:25:23.982Z,19.40
2019-06-01T22:27:53.176Z,19.40
2019-06-01T22:30:22.391Z,19.20
2019-06-01T22:32:51.615Z,19.10
2019-06-01T22:35:21.118Z,19.10
2019-06-01T22:37:49.983Z,19.00
2019-06-01T22:40:19.341Z,18.90
2019-06-01T22:42:49.242Z,18.80
2019-06-01T22:45:18.177Z,18.70
2019-06-01T22:47:47.922Z,18.80
2019-06-01T22:50:17.389Z,18.60
2019-06-01T22:52:46.907Z,18.50
2019-06-01T22:55:16.169Z,18.30
2019-06-01T22:57:45.496Z,18.20
2019-06-01T23:00:15.611Z,18.10
2019-06-01T23:02:44.752Z,18.20
2019-06-01T23:05:14.281Z,18.10
2019-06-01T23:07:43.129Z,18.20
2019-06-01T23:10:12.336Z,18.10
2019-06-01T23:12:41.469Z,18.00
2019-06-01T23:15:10.494Z,17.90
2019-06-01T23:17:39.338Z,17.90
2019-06-01T23:20:08.743Z,17.80
2019-06-01T23:22:37.573Z,17.70
2019-06-01T23:25:07.111Z,17.60
2019-06-01T23:27:36.048Z,17.60
2019-06-01T23:30:06.136Z,17.50
2019-06-01T23:32:34.977Z,17.50
2019-06-01T23:35:04.224Z,17.50
2019-06-01T23:37:33.134Z,17.40
2019-06-01T23:40:02.452Z,17.30
2019-06-01T23:42:31.387Z,17.30
2019-06-01T23:45:00.332Z,17.30
2019-06-01T23:47:29.420Z,17.30
2019-06-01T23:49:58.305Z,17.20
2019-06-01T23:52:27.527Z,17.20
2019-06-01T23:54:56.586Z,17.10
2019-06-01T23:57:25.813Z,17.20
2019-06-01T23:59:55.007Z,17.20
